Time;durP1;ratioP1;P1;durP2;ratioP2;P2;SDS_P1;SDS_P2;PMS_P1;PMS_P2;Temp;Humidity;BMP_temperature;BMP_pressure;BME280_temperature;BME280_humidity;BME280_pressure;Samples;Min_cycle;Max_cycle;Signal;HPM_P1;HPM_P2
2023/12/06 00:01:55;;;;;;;33.43;15.90;;;2.00;99.90;;;;;;4240683;27;20450;-77
2023/12/06 00:03:57;;;;;;;34.10;16.27;;;1.90;99.90;;;;;;4238609;27;20464;-78
2023/12/06 00:05:58;;;;;;;32.87;16.10;;;2.00;99.90;;;;;;4238483;27;20867;-77
2023/12/06 00:08:00;;;;;;;33.93;15.77;;;2.00;99.90;;;;;;4237555;27;20501;-77
2023/12/06 00:10:02;;;;;;;31.47;14.97;;;2.00;99.90;;;;;;4237282;27;20457;-77
2023/12/06 00:12:04;;;;;;;31.53;15.90;;;2.00;99.90;;;;;;4234431;27;20445;-77
2023/12/06 00:14:07;;;;;;;35.90;15.37;;;2.00;99.90;;;;;;4231860;27;20453;-77
2023/12/06 00:16:09;;;;;;;36.33;15.97;;;2.00;99.90;;;;;;4236247;27;20450;-78
2023/12/06 00:18:11;;;;;;;33.43;16.03;;;2.00;99.90;;;;;;4241739;27;20452;-78
2023/12/06 00:20:13;;;;;;;32.67;14.43;;;2.00;99.90;;;;;;4237247;27;20486;-77
2023/12/06 00:22:15;;;;;;;33.37;14.93;;;2.00;99.90;;;;;;4235257;27;20460;-78
2023/12/06 00:24:17;;;;;;;30.67;14.67;;;2.00;99.90;;;;;;4238699;27;20479;-76
2023/12/06 00:26:19;;;;;;;32.13;15.50;;;2.00;99.90;;;;;;4237305;27;20433;-77
2023/12/06 00:28:21;;;;;;;32.50;15.83;;;2.00;99.90;;;;;;4236634;27;20492;-77
2023/12/06 00:30:24;;;;;;;30.03;14.93;;;2.00;99.90;;;;;;4239384;27;20454;-77
2023/12/06 00:32:26;;;;;;;35.00;16.20;;;2.10;99.90;;;;;;4240019;27;20797;-77
2023/12/06 00:34:28;;;;;;;36.00;15.27;;;2.10;99.90;;;;;;4240644;27;20527;-77
2023/12/06 00:36:30;;;;;;;29.97;15.07;;;2.10;99.90;;;;;;4217651;28;20469;-76
2023/12/06 00:38:32;;;;;;;34.23;16.10;;;2.10;99.90;;;;;;4237834;27;20954;-76
2023/12/06 00:40:34;;;;;;;35.40;15.70;;;2.10;99.90;;;;;;4236209;27;20438;-77
2023/12/06 00:42:36;;;;;;;33.20;15.40;;;2.10;99.90;;;;;;4240353;27;20501;-77
2023/12/06 00:44:38;;;;;;;30.40;15.30;;;2.10;99.90;;;;;;4238490;27;20454;-77
2023/12/06 00:46:42;;;;;;;34.97;15.57;;;2.10;99.90;;;;;;4237171;27;20442;-76
2023/12/06 00:48:47;;;;;;;28.93;14.30;;;2.10;99.90;;;;;;4240455;27;20455;-76
2023/12/06 00:50:48;;;;;;;31.67;15.60;;;2.10;99.90;;;;;;4234230;27;20470;-76
2023/12/06 00:52:50;;;;;;;32.47;15.87;;;2.10;99.90;;;;;;4240168;27;20973;-77
2023/12/06 00:54:52;;;;;;;32.40;15.20;;;2.10;99.90;;;;;;4233586;27;20208;-76
2023/12/06 00:56:54;;;;;;;31.17;15.37;;;2.20;99.90;;;;;;4235974;27;20446;-75
2023/12/06 00:58:55;;;;;;;37.47;16.13;;;2.10;99.90;;;;;;4236897;28;20828;-76
2023/12/06 01:00:57;;;;;;;31.70;14.80;;;2.10;99.90;;;;;;4235653;27;20453;-76
2023/12/06 01:03:01;;;;;;;35.23;15.63;;;2.10;99.90;;;;;;4234341;27;20465;-77
2023/12/06 01:05:04;;;;;;;31.23;15.33;;;2.10;99.90;;;;;;4233498;27;20458;-77
2023/12/06 01:07:06;;;;;;;35.30;15.50;;;2.10;99.90;;;;;;4232719;27;20492;-77
2023/12/06 01:09:09;;;;;;;35.10;16.23;;;2.10;99.90;;;;;;4231939;28;20470;-76
2023/12/06 01:11:10;;;;;;;33.47;15.17;;;2.10;99.90;;;;;;4232616;27;20572;-76
2023/12/06 01:13:12;;;;;;;34.07;15.60;;;2.10;99.90;;;;;;4232997;27;20450;-77
2023/12/06 01:15:14;;;;;;;33.33;16.13;;;2.10;99.90;;;;;;4238863;27;20204;-77
2023/12/06 01:17:16;;;;;;;29.60;14.17;;;2.20;99.90;;;;;;4238174;27;20451;-76
2023/12/06 01:19:19;;;;;;;34.63;15.67;;;2.10;99.90;;;;;;4236381;27;20876;-77
2023/12/06 01:21:21;;;;;;;31.57;15.27;;;2.10;99.90;;;;;;4236440;27;20449;-76
2023/12/06 01:23:23;;;;;;;40.50;16.90;;;2.20;99.90;;;;;;4225132;27;20501;-76
2023/12/06 01:25:25;;;;;;;34.97;16.23;;;2.20;99.90;;;;;;4237680;27;20441;-76
2023/12/06 01:27:27;;;;;;;37.17;16.20;;;2.20;99.90;;;;;;4237685;27;20454;-76
2023/12/06 01:29:29;;;;;;;34.47;15.80;;;2.10;99.90;;;;;;4234303;27;20530;-76
2023/12/06 01:31:31;;;;;;;33.63;15.73;;;2.20;99.90;;;;;;4237765;27;20481;-76
2023/12/06 01:33:32;;;;;;;31.93;15.40;;;2.20;99.90;;;;;;4234648;27;20518;-76
2023/12/06 01:35:35;;;;;;;31.33;15.87;;;2.20;99.90;;;;;;4233023;27;20457;-76
2023/12/06 01:37:37;;;;;;;32.60;15.23;;;2.20;99.90;;;;;;4234529;27;20325;-76
2023/12/06 01:39:39;;;;;;;31.60;15.83;;;2.20;99.90;;;;;;4236831;27;20546;-76
2023/12/06 01:41:41;;;;;;;35.67;16.10;;;2.20;99.90;;;;;;4236508;27;20450;-77
2023/12/06 01:43:44;;;;;;;34.57;15.83;;;2.20;99.90;;;;;;4224355;28;20461;-76
2023/12/06 01:45:46;;;;;;;32.57;15.53;;;2.30;99.90;;;;;;4239188;27;20458;-76
2023/12/06 01:47:49;;;;;;;35.83;16.47;;;2.20;99.90;;;;;;4238613;27;20454;-76
2023/12/06 01:49:55;;;;;;;34.93;16.60;;;2.20;99.90;;;;;;4237761;27;20508;-77
2023/12/06 01:51:58;;;;;;;37.27;16.10;;;2.20;99.90;;;;;;4237737;27;20486;-77
2023/12/06 01:54:00;;;;;;;33.23;15.50;;;2.20;99.90;;;;;;4237058;27;20865;-76
2023/12/06 01:56:02;;;;;;;32.40;15.97;;;2.20;99.90;;;;;;4240026;27;20457;-76
2023/12/06 01:58:05;;;;;;;34.30;16.37;;;2.20;99.90;;;;;;4242316;27;20472;-76
2023/12/06 02:00:09;;;;;;;33.90;16.43;;;2.20;99.90;;;;;;4240210;27;20457;-76
2023/12/06 02:02:13;;;;;;;35.07;16.17;;;2.20;99.90;;;;;;4238562;27;20473;-77
2023/12/06 02:04:15;;;;;;;36.30;16.27;;;2.20;99.90;;;;;;4241826;27;20492;-76
2023/12/06 02:06:17;;;;;;;33.27;15.80;;;2.20;99.90;;;;;;4240727;27;20459;-76
2023/12/06 02:08:20;;;;;;;34.43;16.37;;;2.20;99.90;;;;;;4239195;27;20558;-76
2023/12/06 02:10:22;;;;;;;34.00;15.20;;;2.30;99.90;;;;;;4239470;27;20456;-77
2023/12/06 02:12:24;;;;;;;30.20;14.80;;;2.30;99.90;;;;;;4238450;27;20885;-77
2023/12/06 02:14:26;;;;;;;33.80;15.97;;;2.20;99.90;;;;;;4238217;27;20442;-77
2023/12/06 02:16:28;;;;;;;33.30;15.70;;;2.30;99.90;;;;;;4237130;27;20490;-77
2023/12/06 02:18:30;;;;;;;33.07;16.30;;;2.20;99.90;;;;;;4238247;27;20499;-76
2023/12/06 02:20:31;;;;;;;32.93;15.80;;;2.20;99.90;;;;;;4239119;27;20446;-77
2023/12/06 02:22:34;;;;;;;33.67;15.87;;;2.20;99.90;;;;;;4237816;27;20487;-75
2023/12/06 02:24:37;;;;;;;33.37;15.60;;;2.20;99.90;;;;;;4237801;27;20969;-77
2023/12/06 02:26:40;;;;;;;32.77;15.97;;;2.20;99.90;;;;;;4239632;27;20429;-77
2023/12/06 02:28:42;;;;;;;36.03;16.33;;;2.30;99.90;;;;;;4237911;27;20441;-76
2023/12/06 02:30:44;;;;;;;35.60;16.20;;;2.30;99.90;;;;;;4241441;27;20457;-76
2023/12/06 02:32:46;;;;;;;35.93;16.27;;;2.20;99.90;;;;;;4237387;27;20481;-75
2023/12/06 02:34:49;;;;;;;32.93;16.40;;;2.30;99.90;;;;;;4237746;27;20438;-76
2023/12/06 02:37:01;;;;;;;34.90;16.20;;;2.20;99.90;;;;;;4238970;27;20461;-77
2023/12/06 02:39:04;;;;;;;34.10;16.50;;;2.20;99.90;;;;;;4237261;27;20511;-77
2023/12/06 02:41:10;;;;;;;33.67;16.07;;;2.20;99.90;;;;;;4236594;27;20953;-77
2023/12/06 02:43:14;;;;;;;34.50;16.57;;;2.20;99.90;;;;;;4235945;27;21266;-77
2023/12/06 02:45:16;;;;;;;32.80;16.10;;;2.20;99.90;;;;;;4242271;27;20432;-77
2023/12/06 02:47:18;;;;;;;33.20;16.03;;;2.20;99.90;;;;;;4236667;27;20442;-76
2023/12/06 02:49:20;;;;;;;37.80;17.37;;;2.20;99.90;;;;;;4238447;27;20553;-77
2023/12/06 02:51:23;;;;;;;36.20;16.57;;;2.20;99.90;;;;;;4237584;27;20478;-77
2023/12/06 02:53:25;;;;;;;36.20;16.50;;;2.20;99.90;;;;;;4233778;27;20441;-76
2023/12/06 02:55:27;;;;;;;34.77;17.10;;;2.20;99.90;;;;;;4236122;27;20486;-76
2023/12/06 02:57:29;;;;;;;34.67;17.37;;;2.20;99.90;;;;;;4238358;27;21042;-76
2023/12/06 02:59:32;;;;;;;36.83;16.93;;;2.20;99.90;;;;;;4236571;27;21040;-76
2023/12/06 03:01:33;;;;;;;32.53;15.93;;;2.20;99.90;;;;;;4236414;27;21048;-76
2023/12/06 03:03:35;;;;;;;36.03;16.33;;;2.20;99.90;;;;;;4237704;27;20491;-76
2023/12/06 03:05:37;;;;;;;32.83;16.00;;;2.20;99.90;;;;;;4238120;27;20827;-77
2023/12/06 03:07:39;;;;;;;31.97;15.37;;;2.20;99.90;;;;;;4236539;27;20442;-77
2023/12/06 03:09:41;;;;;;;35.93;16.37;;;2.20;99.90;;;;;;4235246;27;21267;-76
2023/12/06 03:11:43;;;;;;;32.33;15.30;;;2.20;99.90;;;;;;4237217;27;20473;-77
2023/12/06 03:13:45;;;;;;;33.27;15.70;;;2.20;99.90;;;;;;4239608;27;20498;-76
2023/12/06 03:15:48;;;;;;;31.80;15.87;;;2.20;99.90;;;;;;4238789;27;20438;-76
2023/12/06 03:17:50;;;;;;;33.20;15.17;;;2.20;99.90;;;;;;4239429;27;20514;-76
2023/12/06 03:19:51;;;;;;;34.80;16.93;;;2.20;99.90;;;;;;4239508;27;20469;-76
2023/12/06 03:21:53;;;;;;;32.20;15.97;;;2.20;99.90;;;;;;4238634;27;21110;-76
2023/12/06 03:23:56;;;;;;;35.27;16.50;;;2.20;99.90;;;;;;4241277;27;20442;-77
2023/12/06 03:25:57;;;;;;;30.83;15.20;;;2.20;99.90;;;;;;4236200;27;20438;-77
2023/12/06 03:28:00;;;;;;;34.47;17.03;;;2.20;99.90;;;;;;4236575;27;20450;-77
2023/12/06 03:30:02;;;;;;;37.90;17.37;;;2.20;99.90;;;;;;4236755;27;20470;-77
2023/12/06 03:32:05;;;;;;;33.97;16.50;;;2.20;99.90;;;;;;4236633;27;20490;-77
2023/12/06 03:34:07;;;;;;;31.73;15.57;;;2.20;99.90;;;;;;4238812;27;21033;-77
2023/12/06 03:36:11;;;;;;;33.13;15.63;;;2.10;99.90;;;;;;4240028;27;20514;-77
2023/12/06 03:38:12;;;;;;;37.63;15.67;;;2.10;99.90;;;;;;4236132;27;20451;-77
2023/12/06 03:40:14;;;;;;;36.07;16.13;;;2.10;99.90;;;;;;4237284;27;20486;-77
2023/12/06 03:42:16;;;;;;;32.20;16.10;;;2.10;99.90;;;;;;4238271;27;20443;-77
2023/12/06 03:44:18;;;;;;;35.73;16.77;;;2.10;99.90;;;;;;4238591;27;20505;-76
2023/12/06 03:46:20;;;;;;;30.80;14.67;;;2.10;99.90;;;;;;4237984;27;20866;-76
2023/12/06 03:48:23;;;;;;;33.23;15.10;;;2.10;99.90;;;;;;4233300;27;20904;-77
2023/12/06 03:50:24;;;;;;;34.47;16.73;;;2.10;99.90;;;;;;4234209;27;20975;-77
2023/12/06 03:52:26;;;;;;;36.03;16.27;;;2.10;99.90;;;;;;4238219;27;20527;-76
2023/12/06 03:54:28;;;;;;;32.60;15.70;;;2.10;99.90;;;;;;4234183;27;20208;-77
2023/12/06 03:56:30;;;;;;;33.83;16.30;;;2.10;99.90;;;;;;4235506;27;20465;-77
2023/12/06 03:58:32;;;;;;;32.10;16.03;;;2.10;99.90;;;;;;4235938;27;20443;-77
2023/12/06 04:00:34;;;;;;;31.10;15.30;;;2.10;99.90;;;;;;4237638;27;20994;-76
2023/12/06 04:02:35;;;;;;;37.30;16.67;;;2.20;99.90;;;;;;4234628;27;20498;-76
2023/12/06 04:04:38;;;;;;;34.23;16.87;;;2.10;99.90;;;;;;4234991;27;20449;-76
2023/12/06 04:06:40;;;;;;;28.67;15.10;;;2.10;99.90;;;;;;4236577;27;20789;-77
2023/12/06 04:08:42;;;;;;;33.03;15.27;;;2.10;99.90;;;;;;4237951;27;20461;-77
2023/12/06 04:10:43;;;;;;;30.43;15.67;;;2.10;99.90;;;;;;4234952;27;20968;-76
2023/12/06 04:12:44;;;;;;;32.60;14.87;;;2.10;99.90;;;;;;4236969;27;20464;-77
2023/12/06 04:14:46;;;;;;;33.47;15.50;;;2.10;99.90;;;;;;4237077;27;20212;-76
2023/12/06 04:16:49;;;;;;;32.40;15.37;;;2.10;99.90;;;;;;4238020;27;20437;-76
2023/12/06 04:18:52;;;;;;;32.90;15.40;;;2.10;99.90;;;;;;4234992;27;20948;-76
2023/12/06 04:20:55;;;;;;;37.93;17.20;;;2.20;99.90;;;;;;4233186;27;20446;-75
2023/12/06 04:22:57;;;;;;;33.77;16.47;;;2.20;99.90;;;;;;4236303;27;20829;-76
2023/12/06 04:24:59;;;;;;;29.70;15.10;;;2.20;99.90;;;;;;4233546;27;20528;-76
2023/12/06 04:27:01;;;;;;;31.27;15.90;;;2.20;99.90;;;;;;4239641;27;20442;-76
2023/12/06 04:29:03;;;;;;;31.00;14.07;;;2.20;99.90;;;;;;4234444;27;20515;-76
2023/12/06 04:31:05;;;;;;;33.90;14.93;;;2.10;99.90;;;;;;4234935;27;20527;-76
2023/12/06 04:33:05;;;;;;;32.17;14.30;;;2.20;99.90;;;;;;4236019;27;20484;-76
2023/12/06 04:35:10;;;;;;;31.50;14.27;;;2.10;99.90;;;;;;4236549;27;21067;-76
2023/12/06 04:37:13;;;;;;;29.63;14.93;;;2.10;99.90;;;;;;4232638;27;20253;-76
2023/12/06 04:39:15;;;;;;;29.70;14.63;;;2.10;99.90;;;;;;4232987;27;20831;-76
2023/12/06 04:41:17;;;;;;;32.33;15.10;;;2.10;99.90;;;;;;4237048;27;20486;-76
2023/12/06 04:43:19;;;;;;;30.23;15.17;;;2.10;99.90;;;;;;4237659;27;20525;-75
2023/12/06 04:45:21;;;;;;;30.27;15.63;;;2.10;99.90;;;;;;4232067;27;20478;-76
2023/12/06 04:47:23;;;;;;;34.87;15.23;;;2.10;99.90;;;;;;4236059;27;20560;-76
2023/12/06 04:49:24;;;;;;;30.03;14.50;;;2.10;99.90;;;;;;4236471;27;20456;-76
2023/12/06 04:51:26;;;;;;;31.77;14.20;;;2.10;99.90;;;;;;4234275;27;20430;-76
2023/12/06 04:53:29;;;;;;;32.67;14.27;;;2.10;99.90;;;;;;4236486;27;20730;-76
2023/12/06 04:55:31;;;;;;;33.20;15.33;;;2.10;99.90;;;;;;4236786;27;20446;-76
2023/12/06 04:57:33;;;;;;;31.13;14.90;;;2.10;99.90;;;;;;4235009;27;20458;-76
2023/12/06 04:59:35;;;;;;;28.53;14.27;;;2.20;99.90;;;;;;4236193;27;20477;-76
2023/12/06 05:01:37;;;;;;;31.73;14.93;;;2.10;99.90;;;;;;4235663;27;20446;-76
2023/12/06 05:03:38;;;;;;;26.50;14.13;;;2.10;99.90;;;;;;4235075;27;21010;-75
2023/12/06 05:05:40;;;;;;;30.20;14.30;;;2.20;99.90;;;;;;4236779;27;20445;-76
2023/12/06 05:07:42;;;;;;;31.87;14.63;;;2.10;99.90;;;;;;4233491;27;20231;-76
2023/12/06 05:09:45;;;;;;;29.60;14.27;;;2.10;99.90;;;;;;4238053;28;20521;-76
2023/12/06 05:11:47;;;;;;;30.03;15.33;;;2.10;99.90;;;;;;4236613;28;20590;-76
2023/12/06 05:13:49;;;;;;;31.30;13.80;;;2.10;99.90;;;;;;4236224;28;20499;-77
2023/12/06 05:15:51;;;;;;;29.90;14.03;;;2.10;99.90;;;;;;4237664;28;20449;-76
2023/12/06 05:17:53;;;;;;;29.67;14.53;;;2.20;99.90;;;;;;4238782;28;20450;-76
2023/12/06 05:19:54;;;;;;;30.40;14.10;;;2.10;99.90;;;;;;4237494;27;20466;-76
2023/12/06 05:21:56;;;;;;;30.83;14.10;;;2.20;99.90;;;;;;4239439;27;20517;-76
2023/12/06 05:23:58;;;;;;;32.93;15.63;;;2.20;99.90;;;;;;4236583;27;20441;-76
2023/12/06 05:26:02;;;;;;;29.50;15.10;;;2.10;99.90;;;;;;4240040;27;20456;-76
2023/12/06 05:28:04;;;;;;;29.20;14.53;;;2.10;99.90;;;;;;4237878;27;21026;-77
2023/12/06 05:30:06;;;;;;;29.90;14.50;;;2.10;99.90;;;;;;4238053;27;21140;-77
2023/12/06 05:32:08;;;;;;;29.30;14.43;;;2.10;99.90;;;;;;4237838;27;20500;-77
2023/12/06 05:34:10;;;;;;;28.60;13.87;;;2.10;99.90;;;;;;4239958;27;20449;-76
2023/12/06 05:36:12;;;;;;;29.40;13.80;;;2.20;99.90;;;;;;4241197;27;20441;-76
2023/12/06 05:38:14;;;;;;;29.30;14.63;;;2.20;99.90;;;;;;4237639;27;20458;-76
2023/12/06 05:40:17;;;;;;;31.27;14.63;;;2.20;99.90;;;;;;4237811;27;20819;-76
2023/12/06 05:42:20;;;;;;;31.40;14.10;;;2.20;99.90;;;;;;4237422;27;20453;-76
2023/12/06 05:44:22;;;;;;;29.03;14.20;;;2.10;99.90;;;;;;4239752;27;20437;-77
2023/12/06 05:46:24;;;;;;;27.03;13.47;;;2.10;99.90;;;;;;4237723;27;20859;-76
2023/12/06 05:48:26;;;;;;;30.47;14.57;;;2.10;99.90;;;;;;4238183;27;20453;-77
2023/12/06 05:50:28;;;;;;;28.70;13.50;;;2.10;99.90;;;;;;4237652;27;20458;-76
2023/12/06 05:52:30;;;;;;;28.60;13.90;;;2.20;99.90;;;;;;4244895;27;20526;-76
2023/12/06 05:54:32;;;;;;;31.03;14.00;;;2.20;99.90;;;;;;4249804;27;20447;-75
2023/12/06 05:56:32;;;;;;;25.07;12.97;;;2.20;99.90;;;;;;4246111;27;20479;-78
2023/12/06 05:58:36;;;;;;;28.63;13.53;;;2.20;99.90;;;;;;4243378;27;20988;-77
2023/12/06 06:00:38;;;;;;;29.53;13.87;;;2.20;99.90;;;;;;4244436;27;20668;-76
2023/12/06 06:02:43;;;;;;;27.57;13.07;;;2.20;99.90;;;;;;4239418;27;21243;-76
2023/12/06 06:04:44;;;;;;;28.33;13.73;;;2.10;99.90;;;;;;4239880;27;21251;-76
2023/12/06 06:06:48;;;;;;;27.53;12.83;;;2.10;99.90;;;;;;4239896;27;20426;-76
2023/12/06 06:08:50;;;;;;;28.13;13.73;;;2.10;99.90;;;;;;4237406;27;20205;-76
2023/12/06 06:10:52;;;;;;;28.57;14.30;;;2.10;99.90;;;;;;4241820;27;20453;-77
2023/12/06 06:12:53;;;;;;;29.00;14.47;;;2.10;99.90;;;;;;4239044;27;20602;-76
2023/12/06 06:14:56;;;;;;;30.50;14.13;;;2.10;99.90;;;;;;4238245;27;20891;-77
2023/12/06 06:16:58;;;;;;;29.37;14.73;;;2.10;99.90;;;;;;4236181;27;21234;-77
2023/12/06 06:18:59;;;;;;;32.83;14.83;;;2.10;99.90;;;;;;4237205;27;20976;-77
2023/12/06 06:21:05;;;;;;;32.03;14.93;;;2.10;99.90;;;;;;4236924;27;20434;-77
2023/12/06 06:23:07;;;;;;;27.73;13.07;;;2.10;99.90;;;;;;4239290;27;20262;-77
2023/12/06 06:25:12;;;;;;;26.87;13.07;;;2.10;99.90;;;;;;4240684;27;20498;-77
2023/12/06 06:27:14;;;;;;;29.30;13.87;;;2.20;99.90;;;;;;4236982;27;20857;-77
2023/12/06 06:29:15;;;;;;;29.30;13.17;;;2.20;99.90;;;;;;4242922;27;20514;-77
2023/12/06 06:31:19;;;;;;;26.10;12.87;;;2.20;99.90;;;;;;4235031;27;20457;-77
2023/12/06 06:33:20;;;;;;;25.63;13.13;;;2.10;99.90;;;;;;4239646;27;20489;-77
2023/12/06 06:35:22;;;;;;;29.13;13.40;;;2.10;99.90;;;;;;4239797;27;20498;-77
2023/12/06 06:37:24;;;;;;;33.27;14.27;;;2.10;99.90;;;;;;4239932;27;20231;-76
2023/12/06 06:39:28;;;;;;;28.97;14.00;;;2.20;99.90;;;;;;4238169;27;20474;-76
2023/12/06 06:41:30;;;;;;;26.00;12.93;;;2.40;99.90;;;;;;4236873;27;20454;-76
2023/12/06 06:43:32;;;;;;;27.53;13.83;;;2.20;99.90;;;;;;4235830;27;20950;-77
2023/12/06 06:45:35;;;;;;;32.00;14.30;;;2.20;99.90;;;;;;4239402;27;20930;-77
2023/12/06 06:47:38;;;;;;;28.43;13.63;;;2.10;99.90;;;;;;4238201;27;20850;-77
2023/12/06 06:49:40;;;;;;;28.87;13.87;;;2.10;99.90;;;;;;4239331;27;20525;-77
2023/12/06 06:51:44;;;;;;;28.90;13.67;;;2.10;99.90;;;;;;4236461;27;20547;-76
2023/12/06 06:53:46;;;;;;;29.43;14.33;;;2.10;99.90;;;;;;4241162;27;20545;-77
2023/12/06 06:55:48;;;;;;;26.93;13.53;;;2.10;99.90;;;;;;4236328;27;20453;-76
2023/12/06 06:57:49;;;;;;;29.03;13.43;;;2.10;99.90;;;;;;4236388;27;20530;-76
2023/12/06 06:59:51;;;;;;;24.57;12.80;;;2.10;99.90;;;;;;4236446;27;20450;-75
2023/12/06 07:01:53;;;;;;;27.37;13.03;;;2.10;99.90;;;;;;4238677;27;20196;-77
2023/12/06 07:03:55;;;;;;;27.60;12.77;;;2.10;99.90;;;;;;4230249;27;21276;-76
2023/12/06 07:05:57;;;;;;;27.43;12.03;;;2.10;99.90;;;;;;4234217;27;20445;-75
2023/12/06 07:07:59;;;;;;;26.17;12.87;;;2.00;99.90;;;;;;4231311;27;20450;-77
2023/12/06 07:10:04;;;;;;;33.13;13.73;;;2.10;99.90;;;;;;4238954;27;21054;-78
2023/12/06 07:12:08;;;;;;;28.57;12.67;;;2.10;99.90;;;;;;4239834;27;20541;-78
2023/12/06 07:14:10;;;;;;;30.37;13.40;;;2.10;99.90;;;;;;4236502;27;20526;-78
2023/12/06 07:16:12;;;;;;;29.37;12.80;;;2.10;99.90;;;;;;4241114;27;20503;-78
2023/12/06 07:18:14;;;;;;;28.10;12.97;;;2.20;99.90;;;;;;4241895;27;20945;-78
2023/12/06 07:20:19;;;;;;;28.57;14.00;;;2.10;99.90;;;;;;4242645;27;20488;-78
2023/12/06 07:22:22;;;;;;;34.27;15.43;;;2.20;99.90;;;;;;4240766;27;20458;-77
2023/12/06 07:24:24;;;;;;;27.07;12.43;;;2.20;99.90;;;;;;4242177;27;20454;-78
2023/12/06 07:26:26;;;;;;;22.93;12.40;;;2.20;99.90;;;;;;4241329;27;20449;-77
2023/12/06 07:28:28;;;;;;;28.27;12.03;;;2.20;99.90;;;;;;4240374;27;20501;-79
2023/12/06 07:30:30;;;;;;;24.20;12.20;;;2.10;99.90;;;;;;4243840;27;20449;-79
2023/12/06 07:32:33;;;;;;;25.50;11.63;;;2.20;99.90;;;;;;4235006;27;20506;-79
2023/12/06 07:34:34;;;;;;;25.17;11.83;;;2.20;99.90;;;;;;4236104;27;20434;-77
2023/12/06 07:36:38;;;;;;;25.73;12.00;;;2.20;99.90;;;;;;4235250;27;20449;-76
2023/12/06 07:38:40;;;;;;;26.33;11.93;;;2.20;99.90;;;;;;4233302;27;20439;-76
2023/12/06 07:40:42;;;;;;;26.10;11.20;;;2.20;99.90;;;;;;4238991;27;21253;-77
2023/12/06 07:42:43;;;;;;;21.63;10.37;;;2.20;99.90;;;;;;4237409;27;20479;-77
2023/12/06 07:44:45;;;;;;;20.43;10.23;;;2.50;99.90;;;;;;4236419;27;20507;-76
2023/12/06 07:46:48;;;;;;;22.27;10.83;;;2.20;99.90;;;;;;4235396;27;21002;-75
2023/12/06 07:48:50;;;;;;;21.87;10.97;;;2.20;99.90;;;;;;4238707;27;20448;-76
2023/12/06 07:50:54;;;;;;;20.67;10.27;;;2.30;99.90;;;;;;4236110;27;20488;-76
2023/12/06 07:52:57;;;;;;;19.90;9.73;;;2.30;99.90;;;;;;4234278;27;20439;-76
2023/12/06 07:54:59;;;;;;;19.37;10.70;;;2.30;99.90;;;;;;4237592;27;20951;-79
2023/12/06 07:57:01;;;;;;;19.27;9.33;;;2.30;99.90;;;;;;4236912;27;20563;-78
2023/12/06 07:59:03;;;;;;;25.47;10.50;;;2.30;99.90;;;;;;4235499;27;21094;-78
2023/12/06 08:01:05;;;;;;;20.67;10.43;;;2.30;99.90;;;;;;4243016;27;20454;-77
2023/12/06 08:03:08;;;;;;;23.33;10.13;;;2.30;99.90;;;;;;4239539;27;20430;-77
2023/12/06 08:05:10;;;;;;;22.83;10.43;;;2.30;99.90;;;;;;4231316;27;20561;-77
2023/12/06 08:07:12;;;;;;;22.27;10.13;;;2.30;99.90;;;;;;4237455;27;20452;-77
2023/12/06 08:09:17;;;;;;;17.70;9.00;;;2.30;99.90;;;;;;4237275;27;20968;-77
2023/12/06 08:11:19;;;;;;;15.73;8.07;;;2.30;99.90;;;;;;4234078;27;21031;-76
2023/12/06 08:13:24;;;;;;;14.20;7.33;;;2.40;99.90;;;;;;4238750;27;20818;-77
2023/12/06 08:15:26;;;;;;;15.07;7.13;;;2.40;99.90;;;;;;4239572;27;20461;-75
2023/12/06 08:17:27;;;;;;;13.33;6.80;;;2.40;99.90;;;;;;4240043;27;20469;-75
2023/12/06 08:19:29;;;;;;;12.60;6.83;;;2.40;99.90;;;;;;4244537;27;21019;-76
2023/12/06 08:21:31;;;;;;;11.10;5.80;;;2.40;99.90;;;;;;4245924;27;20216;-77
2023/12/06 08:23:33;;;;;;;11.50;5.57;;;2.30;99.90;;;;;;4240191;27;20496;-77
2023/12/06 08:25:36;;;;;;;9.43;5.40;;;2.40;99.90;;;;;;4237931;27;20836;-77
2023/12/06 08:27:38;;;;;;;10.80;5.50;;;2.40;99.90;;;;;;4236269;27;21018;-78
2023/12/06 08:29:40;;;;;;;10.43;5.50;;;2.40;99.90;;;;;;4235549;27;20546;-78
2023/12/06 08:31:42;;;;;;;12.80;6.80;;;2.40;99.90;;;;;;4239544;27;21047;-78
2023/12/06 08:33:44;;;;;;;9.90;5.73;;;2.40;99.90;;;;;;4243374;27;20987;-78
2023/12/06 08:35:46;;;;;;;10.27;5.50;;;2.40;99.90;;;;;;4237593;27;20449;-78
2023/12/06 08:37:48;;;;;;;10.93;5.37;;;2.40;99.90;;;;;;4236617;27;20454;-78
2023/12/06 08:39:50;;;;;;;9.90;5.57;;;2.40;99.90;;;;;;4238991;27;20482;-78
2023/12/06 08:41:53;;;;;;;10.53;5.17;;;2.40;99.90;;;;;;4237124;27;20941;-77
2023/12/06 08:43:55;;;;;;;10.47;5.97;;;2.40;99.90;;;;;;4235886;27;20441;-78
2023/12/06 08:45:57;;;;;;;9.00;5.17;;;2.50;99.90;;;;;;4233781;27;20442;-77
2023/12/06 08:47:59;;;;;;;10.47;5.30;;;2.40;99.90;;;;;;4242304;27;20468;-78
2023/12/06 08:50:04;;;;;;;9.40;5.20;;;2.50;99.90;;;;;;4239627;27;20943;-78
2023/12/06 08:52:10;;;;;;;8.63;5.17;;;2.50;99.90;;;;;;4237667;27;20474;-78
2023/12/06 08:54:11;;;;;;;9.20;5.13;;;2.40;99.90;;;;;;4231413;27;20508;-78
2023/12/06 08:56:14;;;;;;;11.37;5.30;;;2.50;99.90;;;;;;4235542;27;20509;-78
2023/12/06 08:58:17;;;;;;;8.50;5.00;;;2.50;99.90;;;;;;4235886;27;20537;-78
2023/12/06 09:00:19;;;;;;;10.40;4.90;;;2.60;99.90;;;;;;4232956;27;20949;-78
2023/12/06 09:02:21;;;;;;;8.90;4.80;;;2.50;99.90;;;;;;4233387;28;20442;-78
2023/12/06 09:04:23;;;;;;;7.93;4.77;;;2.50;99.90;;;;;;4234022;27;20929;-78
2023/12/06 09:06:26;;;;;;;8.63;4.83;;;2.60;99.90;;;;;;4236027;27;20439;-77
2023/12/06 09:08:28;;;;;;;9.83;4.70;;;2.60;99.90;;;;;;4239310;27;20791;-78
2023/12/06 09:10:30;;;;;;;8.97;4.97;;;2.60;99.90;;;;;;4231964;28;20531;-78
2023/12/06 09:12:31;;;;;;;7.27;4.53;;;2.60;99.90;;;;;;4235737;27;20495;-78
2023/12/06 09:14:35;;;;;;;7.77;4.83;;;2.60;99.90;;;;;;4236552;28;20470;-78
2023/12/06 09:16:38;;;;;;;7.70;4.70;;;2.60;99.90;;;;;;4237145;28;20473;-77
2023/12/06 09:18:39;;;;;;;8.47;4.30;;;2.60;99.90;;;;;;4238949;28;20891;-78
2023/12/06 09:20:42;;;;;;;6.60;4.13;;;2.60;99.90;;;;;;4233303;28;20446;-78
2023/12/06 09:22:44;;;;;;;8.00;4.10;;;2.60;99.90;;;;;;4239150;28;20442;-78
2023/12/06 09:24:47;;;;;;;6.57;4.03;;;2.60;99.90;;;;;;4235449;28;20442;-78
2023/12/06 09:26:48;;;;;;;7.00;4.40;;;2.60;99.90;;;;;;4236096;28;20458;-78
2023/12/06 09:28:50;;;;;;;7.37;3.97;;;2.60;99.90;;;;;;4235150;27;20495;-78
2023/12/06 09:30:54;;;;;;;6.07;3.40;;;2.60;99.90;;;;;;4240803;27;20571;-78
2023/12/06 09:32:56;;;;;;;6.80;3.97;;;2.60;99.90;;;;;;4240008;27;20939;-78
2023/12/06 09:34:57;;;;;;;7.10;4.13;;;2.60;99.90;;;;;;4237387;28;20485;-78
2023/12/06 09:36:59;;;;;;;6.37;3.73;;;2.60;99.90;;;;;;4237278;27;20576;-78
2023/12/06 09:39:02;;;;;;;6.37;3.40;;;2.60;99.90;;;;;;4234225;27;20513;-78
2023/12/06 09:41:04;;;;;;;5.87;3.63;;;2.60;99.90;;;;;;4237938;28;20966;-78
2023/12/06 09:43:07;;;;;;;4.93;3.10;;;2.60;99.90;;;;;;4233057;27;20887;-78
2023/12/06 09:45:09;;;;;;;4.90;3.17;;;2.60;99.90;;;;;;4237437;28;20445;-78
2023/12/06 09:47:13;;;;;;;3.77;2.50;;;2.60;99.90;;;;;;4236725;28;21981;-78
2023/12/06 09:49:15;;;;;;;6.73;2.57;;;2.60;99.90;;;;;;4234738;28;20965;-78
2023/12/06 09:51:18;;;;;;;4.63;2.57;;;2.50;99.90;;;;;;4238096;27;20448;-78
2023/12/06 09:53:23;;;;;;;4.57;2.53;;;2.60;99.90;;;;;;4236709;27;21170;-78
2023/12/06 09:55:25;;;;;;;3.67;2.20;;;2.60;99.90;;;;;;4235363;28;20489;-79
2023/12/06 09:57:27;;;;;;;4.33;2.47;;;2.60;99.90;;;;;;4236726;28;20449;-77
2023/12/06 09:59:28;;;;;;;5.17;2.60;;;2.60;99.90;;;;;;4232768;28;20531;-77
2023/12/06 10:01:30;;;;;;;7.03;3.23;;;2.70;99.90;;;;;;4235958;28;20796;-77
2023/12/06 10:03:34;;;;;;;5.67;3.17;;;2.70;99.90;;;;;;4235835;28;20434;-77
2023/12/06 10:05:34;;;;;;;4.70;2.63;;;2.70;99.90;;;;;;4236122;27;20869;-77
2023/12/06 10:07:36;;;;;;;4.03;2.57;;;2.80;99.90;;;;;;4236247;27;20450;-77
2023/12/06 10:09:38;;;;;;;7.63;3.10;;;2.80;99.90;;;;;;4240750;27;20220;-77
2023/12/06 10:11:40;;;;;;;6.97;2.90;;;2.80;99.90;;;;;;4237013;27;20450;-77
2023/12/06 10:13:42;;;;;;;7.33;2.83;;;2.80;99.90;;;;;;4240427;27;20458;-77
2023/12/06 10:15:44;;;;;;;6.00;3.17;;;2.80;99.90;;;;;;4240583;27;20477;-77
2023/12/06 10:17:46;;;;;;;5.20;3.00;;;2.80;99.90;;;;;;4238102;27;21015;-77
2023/12/06 10:19:49;;;;;;;3.83;2.43;;;2.70;99.90;;;;;;4235957;27;20890;-77
2023/12/06 10:21:51;;;;;;;4.37;2.30;;;2.70;99.90;;;;;;4239942;27;20477;-77
2023/12/06 10:23:55;;;;;;;4.93;2.93;;;2.70;99.90;;;;;;4238121;27;20446;-77
2023/12/06 10:25:57;;;;;;;4.60;2.80;;;2.70;99.90;;;;;;4238739;27;20471;-78
2023/12/06 10:28:01;;;;;;;5.70;2.80;;;2.70;99.90;;;;;;4239263;27;20445;-79
2023/12/06 10:30:04;;;;;;;5.17;2.90;;;2.70;99.90;;;;;;4237293;27;20483;-78
2023/12/06 10:32:07;;;;;;;5.63;3.10;;;2.70;99.90;;;;;;4245271;27;20473;-80